Tuesday, January 23, 2018, 7:24 AM EST
Back to Local

KLBE, Latrobe / Westmorland

Location: Latrobe, PA, United States Lat: 40.283
Local Time: 7:24 AM EST (12:24 GMT) Lon: -79.4
Time Zone: US/Eastern Elev: 1184 ft

Show me the last for .
Show Decoded

2018-01-23 05:55 METAR KLBE 231055Z AUTO 17004KT 4SM -RA SCT019 BKN029 OVC039 09/09 A2964 RMK AO2
                 P0004 =
2018-01-23 05:35 METAR KLBE 231035Z AUTO 17003KT 5SM -RA FEW021 SCT027 BKN039 09/09 A2965 RMK AO2
                 =
2018-01-23 05:15 METAR KLBE 231015Z AUTO 17003KT 9SM FEW021 SCT045 BKN060 09/09 A2965 RMK AO2 =
2018-01-23 04:55 METAR KLBE 230955Z AUTO 18003KT 9SM -RA SCT032 BKN070 OVC085 09/09 A2965 RMK AO2
                 P0004 =
2018-01-23 04:35 METAR KLBE 230935Z AUTO 20008KT 8SM -RA FEW034 SCT042 OVC050 09/09 A2967 RMK AO2
                 =
2018-01-23 04:15 METAR KLBE 230915Z AUTO 19004KT 10SM OVC050 09/08 A2966 RMK AO2 =
2018-01-23 03:55 METAR KLBE 230855Z AUTO 20006KT 10SM -RA FEW031 SCT039 OVC047 10/08 A2966 RMK
                 AO2 P0005 =
2018-01-23 03:35 METAR KLBE 230835Z AUTO 24012G24KT 5SM -RA FEW031 SCT037 BKN045 11/07 A2967 RMK
                 AO2 P0003 =
2018-01-23 02:55 METAR KLBE 230755Z AUTO 16013G20KT 10SM FEW085 FEW120 14/07 A2959 RMK AO2 LTG
                 DSNT NW =
2018-01-23 02:35 METAR KLBE 230735Z AUTO 16011G16KT 10SM FEW085 14/07 A2961 RMK AO2 =
2018-01-23 02:15 METAR KLBE 230715Z AUTO 16010G15KT 140V200 10SM CLR 13/06 A2962 RMK AO2 =
2018-01-23 01:55 METAR KLBE 230655Z AUTO 15011G17KT 10SM CLR 14/06 A2962 RMK AO2 LTG DSNT N AND
                 NW =
2018-01-23 01:35 METAR KLBE 230635Z AUTO 16009G17KT 10SM CLR 14/06 A2964 RMK AO2 LTG DSNT W =
2018-01-23 01:15 METAR KLBE 230615Z AUTO 16009KT 10SM CLR 14/06 A2965 RMK AO2 LTG DSNT NW =
2018-01-23 00:55 METAR KLBE 230555Z AUTO 16012G17KT 10SM CLR 14/06 A2966 RMK AO2 LTG DSNT W AND
                 NW =
2018-01-23 00:35 METAR KLBE 230535Z AUTO 16010KT 10SM FEW065 14/06 A2968 RMK AO2 =
2018-01-23 00:15 METAR KLBE 230515Z AUTO 15010G15KT 10SM BKN065 13/06 A2969 RMK AO2 =
2018-01-22 23:55 METAR KLBE 230455Z AUTO 15009G16KT 10SM OVC065 14/06 A2970 RMK AO2 =
2018-01-22 23:35 METAR KLBE 230435Z AUTO 16007KT 10SM FEW047 BKN065 14/07 A2972 RMK AO2 =
2018-01-22 23:15 METAR KLBE 230415Z AUTO 18004KT 10SM -RA FEW049 BKN075 BKN080 13/06 A2973 RMK
                 AO2 =
2018-01-22 22:55 METAR KLBE 230355Z AUTO 21005KT 10SM FEW046 BKN075 13/06 A2975 RMK AO2 P0002 =
2018-01-22 22:35 METAR KLBE 230335Z AUTO 13007KT 7SM -RA FEW033 SCT044 OVC075 14/06 A2976 RMK AO2
                 P0001 =
2018-01-22 22:15 METAR KLBE 230315Z AUTO 14006KT 10SM -RA FEW033 SCT060 BKN075 14/05 A2977 RMK
                 AO2 =
2018-01-22 21:50 METAR KLBE 230250Z 18005KT 10SM SCT045 BKN070 14/05 A2979 =
2018-01-22 20:50 METAR KLBE 230150Z 18010KT 10SM BKN060 15/04 A2982 =
2018-01-22 19:50 METAR KLBE 230050Z 18006KT 10SM SCT080 15/05 A2982 =
2018-01-22 18:50 METAR KLBE 222350Z 18005KT 10SM BKN070 15/05 A2984 =
2018-01-22 17:50 METAR KLBE 222250Z 16008KT 10SM BKN090 16/06 A2984 =
2018-01-22 16:50 METAR KLBE 222150Z 16006KT 10SM BKN090 17/07 A2986 =
2018-01-22 15:50 METAR KLBE 222050Z 19006KT 10SM SKC 18/06 A2988 =
2018-01-22 14:50 METAR KLBE 221950Z 20006KT 10SM SKC 18/07 A2988 =
2018-01-22 13:55 METAR KLBE 221855Z 19006KT 10SM SCT050 BKN110 18/07 A2991 =
2018-01-22 12:45 METAR KLBE 221745Z 17008KT 10SM SCT050 BKN110 17/08 A2994 =
2018-01-22 11:50 METAR KLBE 221650Z 20008KT 20SM FEW050 BKN110 17/09 A2999 =
2018-01-22 10:45 METAR KLBE 221545Z 19006KT 10SM FEW070 BKN110 14/10 A3003 =
2018-01-22 09:47 METAR KLBE 221447Z 00000KT 15SM SCT050 BKN110 09/09 A3005 =
2018-01-22 08:47 METAR KLBE 221347Z 00000KT 15SM OVC050 08/08 A3006 =
2018-01-22 07:47 METAR KLBE 221247Z 00000KT 10SM -RA BKN035 OVC045 08/08 A3007 =

Support USWX by starting your Amazon purchase here.